UAL3865 KSAN-KLAX
Flight info
| Callsign | UAL3865 |
|---|---|
| Flight time | N/A |
| Altitude | 10000 |
| Route | CWARD2 SLI |
| Aircraft | A320/M-SDE3FGHIRWY/LB1 |
Departure
| Time | 2026-05-08 03:54 |
|---|---|
| Airport | San Diego International Airport (KSAN) |
Arrival
| Time | N/A |
|---|---|
| Airport | Los Angeles International Airport (KLAX) |
| Time | Latitude | Longitude | Altitude | Speed | Heading |
|---|---|---|---|---|---|
| 2026-05-08 03:51 | 32.73390 | -117.19593 | 26 ft | 0 kts | 110° |
| 2026-05-08 03:51 | 32.73385 | -117.19561 | 27 ft | 10 kts | 95° |
| 2026-05-08 03:51 | 32.73374 | -117.19473 | 27 ft | 12 kts | 99° |
| 2026-05-08 03:51 | 32.73352 | -117.19365 | 27 ft | 15 kts | 106° |
| 2026-05-08 03:52 | 32.73317 | -117.19229 | 26 ft | 19 kts | 106° |
| 2026-05-08 03:52 | 32.73282 | -117.19077 | 29 ft | 20 kts | 104° |
| 2026-05-08 03:52 | 32.73245 | -117.18912 | 27 ft | 22 kts | 107° |
| 2026-05-08 03:52 | 32.73198 | -117.18734 | 23 ft | 23 kts | 107° |
| 2026-05-08 03:53 | 32.73153 | -117.18551 | 32 ft | 8 kts | 105° |
| 2026-05-08 03:53 | 32.73172 | -117.18481 | 28 ft | 11 kts | 50° |
| 2026-05-08 03:53 | 32.73235 | -117.18484 | 30 ft | 11 kts | 306° |
| 2026-05-08 03:53 | 32.73293 | -117.18711 | 27 ft | 68 kts | 286° |
| 2026-05-08 03:54 | 32.73505 | -117.19572 | 43 ft | 141 kts | 286° |
| 2026-05-08 03:54 | 32.73797 | -117.20748 | 565 ft | 152 kts | 286° |
| 2026-05-08 03:54 | 32.74272 | -117.21889 | 1253 ft | 160 kts | 306° |
| 2026-05-08 03:54 | 32.74919 | -117.22982 | 1892 ft | 164 kts | 304° |
| 2026-05-08 03:55 | 32.75628 | -117.24213 | 1917 ft | 201 kts | 304° |
| 2026-05-08 03:55 | 32.76461 | -117.25678 | 2254 ft | 225 kts | 304° |
| 2026-05-08 03:55 | 32.77062 | -117.26739 | 2521 ft | 241 kts | 304° |
| 2026-05-08 03:55 | 32.78365 | -117.29044 | 3395 ft | 258 kts | 304° |
| 2026-05-08 03:56 | 32.79367 | -117.30820 | 4333 ft | 258 kts | 304° |
| 2026-05-08 03:56 | 32.80379 | -117.32569 | 5265 ft | 258 kts | 306° |
| 2026-05-08 03:56 | 32.81465 | -117.34295 | 6100 ft | 262 kts | 307° |
| 2026-05-08 03:56 | 32.82586 | -117.36010 | 6873 ft | 266 kts | 308° |
| 2026-05-08 03:57 | 32.83747 | -117.37767 | 7633 ft | 272 kts | 309° |
| 2026-05-08 03:57 | 32.84915 | -117.39543 | 8360 ft | 277 kts | 309° |
| 2026-05-08 03:57 | 32.86119 | -117.41388 | 9110 ft | 283 kts | 310° |
| 2026-05-08 03:57 | 32.87320 | -117.43240 | 9748 ft | 290 kts | 310° |
| 2026-05-08 03:58 | 32.88560 | -117.45161 | 9946 ft | 292 kts | 310° |
| 2026-05-08 03:58 | 32.89800 | -117.47092 | 9989 ft | 292 kts | 310° |
| 2026-05-08 03:58 | 32.91025 | -117.49003 | 9993 ft | 294 kts | 310° |
| 2026-05-08 03:58 | 32.92271 | -117.50944 | 9991 ft | 294 kts | 310° |
| 2026-05-08 03:59 | 32.93510 | -117.52870 | 9985 ft | 294 kts | 310° |
| 2026-05-08 03:59 | 32.94756 | -117.54816 | 9987 ft | 294 kts | 310° |
| 2026-05-08 03:59 | 32.96004 | -117.56763 | 9989 ft | 294 kts | 310° |
| 2026-05-08 03:59 | 32.97237 | -117.58683 | 9989 ft | 294 kts | 310° |
| 2026-05-08 04:00 | 32.98485 | -117.60628 | 9990 ft | 294 kts | 310° |
| 2026-05-08 04:00 | 32.99320 | -117.61930 | 9991 ft | 294 kts | 310° |